sensor_id;sensor_type;location;lat;lon;timestamp;P1;durP1;ratioP1;P2;durP2;ratioP2
68097;SDS011;54886;47.036;15.466;2023-05-10T00:00:36;6.95;;;3.75;;
68097;SDS011;54886;47.036;15.466;2023-05-10T00:03:02;7.53;;;4.00;;
68097;SDS011;54886;47.036;15.466;2023-05-10T00:05:30;8.48;;;3.55;;
68097;SDS011;54886;47.036;15.466;2023-05-10T00:07:56;5.97;;;3.70;;
68097;SDS011;54886;47.036;15.466;2023-05-10T00:10:21;7.88;;;3.95;;
68097;SDS011;54886;47.036;15.466;2023-05-10T00:12:46;6.88;;;3.80;;
68097;SDS011;54886;47.036;15.466;2023-05-10T00:15:12;6.57;;;4.00;;
68097;SDS011;54886;47.036;15.466;2023-05-10T00:17:37;6.75;;;3.72;;
68097;SDS011;54886;47.036;15.466;2023-05-10T00:20:03;5.90;;;3.60;;
68097;SDS011;54886;47.036;15.466;2023-05-10T00:22:29;6.72;;;4.13;;
68097;SDS011;54886;47.036;15.466;2023-05-10T00:24:55;8.02;;;3.90;;
68097;SDS011;54886;47.036;15.466;2023-05-10T00:27:21;8.27;;;4.00;;
68097;SDS011;54886;47.036;15.466;2023-05-10T00:29:46;6.93;;;3.70;;
68097;SDS011;54886;47.036;15.466;2023-05-10T00:32:11;6.68;;;3.58;;
68097;SDS011;54886;47.036;15.466;2023-05-10T00:34:38;5.90;;;3.90;;
68097;SDS011;54886;47.036;15.466;2023-05-10T00:37:04;7.32;;;3.80;;
68097;SDS011;54886;47.036;15.466;2023-05-10T00:39:30;8.25;;;4.30;;
68097;SDS011;54886;47.036;15.466;2023-05-10T00:41:56;6.13;;;3.95;;
68097;SDS011;54886;47.036;15.466;2023-05-10T00:44:21;5.60;;;3.90;;
68097;SDS011;54886;47.036;15.466;2023-05-10T00:46:46;6.20;;;3.85;;
68097;SDS011;54886;47.036;15.466;2023-05-10T00:49:13;6.72;;;4.00;;
68097;SDS011;54886;47.036;15.466;2023-05-10T00:51:38;6.30;;;3.65;;
68097;SDS011;54886;47.036;15.466;2023-05-10T00:54:04;6.47;;;3.80;;
68097;SDS011;54886;47.036;15.466;2023-05-10T00:56:30;6.00;;;3.65;;
68097;SDS011;54886;47.036;15.466;2023-05-10T00:58:56;6.05;;;3.80;;
68097;SDS011;54886;47.036;15.466;2023-05-10T01:01:22;6.18;;;3.72;;
68097;SDS011;54886;47.036;15.466;2023-05-10T01:03:47;5.68;;;3.50;;
68097;SDS011;54886;47.036;15.466;2023-05-10T01:06:13;9.30;;;3.83;;
68097;SDS011;54886;47.036;15.466;2023-05-10T01:08:39;7.15;;;3.60;;
68097;SDS011;54886;47.036;15.466;2023-05-10T01:11:05;5.72;;;3.78;;
68097;SDS011;54886;47.036;15.466;2023-05-10T01:13:34;5.63;;;3.78;;
68097;SDS011;54886;47.036;15.466;2023-05-10T01:16:03;5.88;;;3.60;;
68097;SDS011;54886;47.036;15.466;2023-05-10T01:18:29;6.43;;;3.70;;
68097;SDS011;54886;47.036;15.466;2023-05-10T01:26:18;4.57;;;3.50;;
68097;SDS011;54886;47.036;15.466;2023-05-10T01:28:51;5.70;;;3.67;;
68097;SDS011;54886;47.036;15.466;2023-05-10T01:34:27;5.93;;;3.58;;
68097;SDS011;54886;47.036;15.466;2023-05-10T01:37:06;5.93;;;3.40;;
68097;SDS011;54886;47.036;15.466;2023-05-10T01:39:45;8.50;;;3.67;;
68097;SDS011;54886;47.036;15.466;2023-05-10T01:42:20;5.78;;;3.72;;
68097;SDS011;54886;47.036;15.466;2023-05-10T01:44:56;6.20;;;3.53;;
68097;SDS011;54886;47.036;15.466;2023-05-10T01:50:09;5.40;;;3.30;;
68097;SDS011;54886;47.036;15.466;2023-05-10T01:52:42;5.75;;;3.50;;
68097;SDS011;54886;47.036;15.466;2023-05-10T01:55:13;5.32;;;3.60;;
68097;SDS011;54886;47.036;15.466;2023-05-10T01:57:42;8.93;;;3.75;;
68097;SDS011;54886;47.036;15.466;2023-05-10T02:00:09;6.75;;;3.90;;
68097;SDS011;54886;47.036;15.466;2023-05-10T02:02:37;6.25;;;3.60;;
68097;SDS011;54886;47.036;15.466;2023-05-10T02:05:07;6.78;;;3.40;;
68097;SDS011;54886;47.036;15.466;2023-05-10T02:07:35;5.18;;;3.35;;
68097;SDS011;54886;47.036;15.466;2023-05-10T02:10:01;5.63;;;3.78;;
68097;SDS011;54886;47.036;15.466;2023-05-10T02:14:55;6.78;;;3.58;;
68097;SDS011;54886;47.036;15.466;2023-05-10T02:17:22;5.80;;;3.70;;
68097;SDS011;54886;47.036;15.466;2023-05-10T02:19:50;6.78;;;4.18;;
68097;SDS011;54886;47.036;15.466;2023-05-10T02:22:17;6.78;;;4.07;;
68097;SDS011;54886;47.036;15.466;2023-05-10T02:24:44;5.85;;;3.65;;
68097;SDS011;54886;47.036;15.466;2023-05-10T02:27:11;6.40;;;3.75;;
68097;SDS011;54886;47.036;15.466;2023-05-10T02:29:38;5.82;;;3.70;;
68097;SDS011;54886;47.036;15.466;2023-05-10T02:32:04;10.93;;;4.40;;
68097;SDS011;54886;47.036;15.466;2023-05-10T02:34:31;6.95;;;3.88;;
68097;SDS011;54886;47.036;15.466;2023-05-10T02:36:57;8.15;;;3.80;;
68097;SDS011;54886;47.036;15.466;2023-05-10T02:39:23;5.72;;;3.80;;
68097;SDS011;54886;47.036;15.466;2023-05-10T02:41:51;7.40;;;4.10;;
68097;SDS011;54886;47.036;15.466;2023-05-10T02:44:18;6.85;;;3.60;;
68097;SDS011;54886;47.036;15.466;2023-05-10T02:46:46;7.00;;;4.40;;
68097;SDS011;54886;47.036;15.466;2023-05-10T02:49:12;6.22;;;3.80;;
68097;SDS011;54886;47.036;15.466;2023-05-10T02:51:40;6.60;;;3.95;;
68097;SDS011;54886;47.036;15.466;2023-05-10T02:54:15;6.80;;;3.72;;
68097;SDS011;54886;47.036;15.466;2023-05-10T02:56:46;7.63;;;4.03;;
68097;SDS011;54886;47.036;15.466;2023-05-10T02:59:15;8.15;;;3.95;;
68097;SDS011;54886;47.036;15.466;2023-05-10T03:01:41;11.18;;;3.90;;
68097;SDS011;54886;47.036;15.466;2023-05-10T03:04:06;6.30;;;3.88;;
68097;SDS011;54886;47.036;15.466;2023-05-10T03:06:32;8.70;;;4.50;;
68097;SDS011;54886;47.036;15.466;2023-05-10T03:08:57;6.53;;;3.95;;
68097;SDS011;54886;47.036;15.466;2023-05-10T03:16:34;8.55;;;4.10;;
68097;SDS011;54886;47.036;15.466;2023-05-10T03:21:35;7.30;;;4.38;;
68097;SDS011;54886;47.036;15.466;2023-05-10T03:26:31;9.07;;;4.28;;
68097;SDS011;54886;47.036;15.466;2023-05-10T03:28:58;7.63;;;4.35;;
68097;SDS011;54886;47.036;15.466;2023-05-10T03:31:24;6.47;;;3.83;;
68097;SDS011;54886;47.036;15.466;2023-05-10T03:33:50;8.27;;;3.83;;
68097;SDS011;54886;47.036;15.466;2023-05-10T03:36:17;6.60;;;4.10;;
68097;SDS011;54886;47.036;15.466;2023-05-10T03:38:43;7.90;;;4.07;;
68097;SDS011;54886;47.036;15.466;2023-05-10T03:41:08;7.50;;;4.43;;
68097;SDS011;54886;47.036;15.466;2023-05-10T03:43:34;9.20;;;4.20;;
68097;SDS011;54886;47.036;15.466;2023-05-10T03:46:01;6.45;;;4.07;;
68097;SDS011;54886;47.036;15.466;2023-05-10T03:48:30;7.10;;;4.20;;
68097;SDS011;54886;47.036;15.466;2023-05-10T03:50:56;7.70;;;4.13;;
68097;SDS011;54886;47.036;15.466;2023-05-10T03:53:22;8.20;;;4.03;;
68097;SDS011;54886;47.036;15.466;2023-05-10T03:55:48;7.15;;;4.00;;
68097;SDS011;54886;47.036;15.466;2023-05-10T03:58:13;7.15;;;4.22;;
68097;SDS011;54886;47.036;15.466;2023-05-10T04:00:38;6.45;;;4.10;;
68097;SDS011;54886;47.036;15.466;2023-05-10T04:03:08;7.20;;;3.80;;
68097;SDS011;54886;47.036;15.466;2023-05-10T04:05:34;7.00;;;3.47;;
68097;SDS011;54886;47.036;15.466;2023-05-10T04:08:00;6.07;;;3.67;;
68097;SDS011;54886;47.036;15.466;2023-05-10T04:10:25;6.35;;;3.67;;
68097;SDS011;54886;47.036;15.466;2023-05-10T04:12:51;7.95;;;3.92;;
68097;SDS011;54886;47.036;15.466;2023-05-10T04:15:16;6.68;;;4.30;;
68097;SDS011;54886;47.036;15.466;2023-05-10T04:17:41;9.55;;;4.25;;
68097;SDS011;54886;47.036;15.466;2023-05-10T04:20:07;8.32;;;4.50;;
68097;SDS011;54886;47.036;15.466;2023-05-10T04:22:34;7.22;;;4.40;;
68097;SDS011;54886;47.036;15.466;2023-05-10T04:24:59;8.68;;;4.43;;
68097;SDS011;54886;47.036;15.466;2023-05-10T04:27:25;9.35;;;4.38;;
68097;SDS011;54886;47.036;15.466;2023-05-10T04:29:50;7.93;;;4.40;;
68097;SDS011;54886;47.036;15.466;2023-05-10T04:32:16;9.75;;;4.75;;
68097;SDS011;54886;47.036;15.466;2023-05-10T04:34:42;11.57;;;4.60;;
68097;SDS011;54886;47.036;15.466;2023-05-10T04:37:08;8.57;;;4.50;;
68097;SDS011;54886;47.036;15.466;2023-05-10T04:39:33;9.00;;;4.38;;
68097;SDS011;54886;47.036;15.466;2023-05-10T04:42:00;8.23;;;4.50;;
68097;SDS011;54886;47.036;15.466;2023-05-10T04:44:25;8.13;;;4.63;;
68097;SDS011;54886;47.036;15.466;2023-05-10T04:46:51;8.23;;;4.65;;
68097;SDS011;54886;47.036;15.466;2023-05-10T04:49:16;8.00;;;4.50;;
68097;SDS011;54886;47.036;15.466;2023-05-10T04:51:42;8.65;;;4.40;;
68097;SDS011;54886;47.036;15.466;2023-05-10T04:54:08;9.88;;;4.50;;
68097;SDS011;54886;47.036;15.466;2023-05-10T04:56:33;8.05;;;4.70;;
68097;SDS011;54886;47.036;15.466;2023-05-10T04:58:59;10.43;;;4.05;;
68097;SDS011;54886;47.036;15.466;2023-05-10T05:01:24;9.35;;;4.82;;
68097;SDS011;54886;47.036;15.466;2023-05-10T05:03:49;7.32;;;4.35;;
68097;SDS011;54886;47.036;15.466;2023-05-10T05:06:15;8.50;;;4.80;;
68097;SDS011;54886;47.036;15.466;2023-05-10T05:08:40;11.57;;;5.20;;
68097;SDS011;54886;47.036;15.466;2023-05-10T05:11:06;8.10;;;4.40;;
68097;SDS011;54886;47.036;15.466;2023-05-10T05:13:31;8.65;;;4.85;;
68097;SDS011;54886;47.036;15.466;2023-05-10T05:15:57;8.45;;;4.80;;
68097;SDS011;54886;47.036;15.466;2023-05-10T05:18:22;9.35;;;5.03;;
68097;SDS011;54886;47.036;15.466;2023-05-10T05:20:47;10.05;;;5.30;;
68097;SDS011;54886;47.036;15.466;2023-05-10T05:23:13;8.20;;;4.70;;
68097;SDS011;54886;47.036;15.466;2023-05-10T05:25:38;9.00;;;4.53;;
68097;SDS011;54886;47.036;15.466;2023-05-10T05:28:04;10.10;;;4.63;;
68097;SDS011;54886;47.036;15.466;2023-05-10T05:30:29;8.88;;;4.85;;
68097;SDS011;54886;47.036;15.466;2023-05-10T05:32:55;9.70;;;5.18;;
68097;SDS011;54886;47.036;15.466;2023-05-10T05:35:20;10.57;;;5.13;;
68097;SDS011;54886;47.036;15.466;2023-05-10T05:37:45;9.90;;;5.20;;
68097;SDS011;54886;47.036;15.466;2023-05-10T05:40:14;10.88;;;5.50;;
68097;SDS011;54886;47.036;15.466;2023-05-10T05:42:40;11.43;;;5.53;;
68097;SDS011;54886;47.036;15.466;2023-05-10T05:45:05;9.82;;;5.38;;
68097;SDS011;54886;47.036;15.466;2023-05-10T05:47:31;8.23;;;4.97;;
68097;SDS011;54886;47.036;15.466;2023-05-10T05:49:56;11.27;;;5.43;;
68097;SDS011;54886;47.036;15.466;2023-05-10T05:52:22;12.55;;;5.32;;
68097;SDS011;54886;47.036;15.466;2023-05-10T05:54:47;9.48;;;5.75;;
68097;SDS011;54886;47.036;15.466;2023-05-10T05:57:13;14.10;;;7.18;;
68097;SDS011;54886;47.036;15.466;2023-05-10T05:59:38;11.68;;;6.85;;
68097;SDS011;54886;47.036;15.466;2023-05-10T06:02:07;9.18;;;5.00;;
68097;SDS011;54886;47.036;15.466;2023-05-10T06:04:33;11.18;;;4.95;;
68097;SDS011;54886;47.036;15.466;2023-05-10T06:06:58;7.53;;;4.55;;
68097;SDS011;54886;47.036;15.466;2023-05-10T06:09:24;7.07;;;4.70;;
68097;SDS011;54886;47.036;15.466;2023-05-10T06:11:49;7.68;;;4.53;;
68097;SDS011;54886;47.036;15.466;2023-05-10T06:14:14;8.55;;;4.80;;
68097;SDS011;54886;47.036;15.466;2023-05-10T06:16:40;8.63;;;4.35;;
68097;SDS011;54886;47.036;15.466;2023-05-10T06:19:05;9.50;;;4.57;;
68097;SDS011;54886;47.036;15.466;2023-05-10T06:21:31;8.60;;;5.22;;
68097;SDS011;54886;47.036;15.466;2023-05-10T06:23:56;10.15;;;5.32;;
68097;SDS011;54886;47.036;15.466;2023-05-10T06:26:21;9.82;;;5.43;;
68097;SDS011;54886;47.036;15.466;2023-05-10T06:28:47;8.23;;;4.47;;
68097;SDS011;54886;47.036;15.466;2023-05-10T06:31:12;12.00;;;5.65;;
68097;SDS011;54886;47.036;15.466;2023-05-10T06:33:38;12.40;;;5.25;;
68097;SDS011;54886;47.036;15.466;2023-05-10T06:36:03;10.52;;;5.22;;
68097;SDS011;54886;47.036;15.466;2023-05-10T06:38:29;9.10;;;5.00;;
68097;SDS011;54886;47.036;15.466;2023-05-10T06:40:54;9.57;;;5.78;;
68097;SDS011;54886;47.036;15.466;2023-05-10T06:43:20;8.77;;;5.25;;
68097;SDS011;54886;47.036;15.466;2023-05-10T06:45:45;8.55;;;5.00;;
68097;SDS011;54886;47.036;15.466;2023-05-10T06:48:11;7.72;;;5.45;;
68097;SDS011;54886;47.036;15.466;2023-05-10T06:50:36;8.35;;;4.90;;
68097;SDS011;54886;47.036;15.466;2023-05-10T06:53:01;10.55;;;5.53;;
68097;SDS011;54886;47.036;15.466;2023-05-10T06:55:27;9.57;;;5.70;;
68097;SDS011;54886;47.036;15.466;2023-05-10T06:57:53;9.93;;;5.60;;
68097;SDS011;54886;47.036;15.466;2023-05-10T07:00:19;8.80;;;5.72;;
68097;SDS011;54886;47.036;15.466;2023-05-10T07:02:45;13.27;;;6.15;;
68097;SDS011;54886;47.036;15.466;2023-05-10T07:05:11;10.52;;;5.95;;
68097;SDS011;54886;47.036;15.466;2023-05-10T07:07:37;10.00;;;5.85;;
68097;SDS011;54886;47.036;15.466;2023-05-10T07:10:02;9.70;;;5.63;;
68097;SDS011;54886;47.036;15.466;2023-05-10T07:12:28;9.55;;;5.78;;
68097;SDS011;54886;47.036;15.466;2023-05-10T07:14:54;10.05;;;5.47;;
68097;SDS011;54886;47.036;15.466;2023-05-10T07:17:19;9.07;;;5.30;;
68097;SDS011;54886;47.036;15.466;2023-05-10T07:19:44;9.43;;;5.38;;
68097;SDS011;54886;47.036;15.466;2023-05-10T07:22:10;11.27;;;5.78;;
68097;SDS011;54886;47.036;15.466;2023-05-10T07:24:35;9.48;;;5.65;;
68097;SDS011;54886;47.036;15.466;2023-05-10T07:27:01;8.52;;;5.32;;
68097;SDS011;54886;47.036;15.466;2023-05-10T07:29:26;9.20;;;5.30;;
68097;SDS011;54886;47.036;15.466;2023-05-10T07:31:52;10.57;;;5.85;;
68097;SDS011;54886;47.036;15.466;2023-05-10T07:34:18;9.80;;;5.78;;
68097;SDS011;54886;47.036;15.466;2023-05-10T07:36:43;8.45;;;5.18;;
68097;SDS011;54886;47.036;15.466;2023-05-10T07:39:08;10.35;;;5.68;;
68097;SDS011;54886;47.036;15.466;2023-05-10T07:41:34;9.88;;;5.60;;
68097;SDS011;54886;47.036;15.466;2023-05-10T07:43:59;12.27;;;5.80;;
68097;SDS011;54886;47.036;15.466;2023-05-10T07:46:25;11.15;;;5.75;;
68097;SDS011;54886;47.036;15.466;2023-05-10T07:48:50;10.23;;;6.13;;
68097;SDS011;54886;47.036;15.466;2023-05-10T07:51:16;13.45;;;6.22;;
68097;SDS011;54886;47.036;15.466;2023-05-10T07:53:41;7.90;;;5.28;;
68097;SDS011;54886;47.036;15.466;2023-05-10T07:56:26;9.18;;;5.82;;
68097;SDS011;54886;47.036;15.466;2023-05-10T07:58:54;11.95;;;5.65;;
68097;SDS011;54886;47.036;15.466;2023-05-10T08:01:20;10.57;;;5.78;;
68097;SDS011;54886;47.036;15.466;2023-05-10T08:03:46;9.98;;;6.20;;
68097;SDS011;54886;47.036;15.466;2023-05-10T08:06:12;11.80;;;6.18;;
68097;SDS011;54886;47.036;15.466;2023-05-10T08:08:37;10.48;;;5.97;;
68097;SDS011;54886;47.036;15.466;2023-05-10T08:11:03;10.75;;;5.70;;
68097;SDS011;54886;47.036;15.466;2023-05-10T08:13:28;9.52;;;5.50;;
68097;SDS011;54886;47.036;15.466;2023-05-10T08:15:54;11.50;;;6.10;;
68097;SDS011;54886;47.036;15.466;2023-05-10T08:18:19;11.52;;;5.68;;
68097;SDS011;54886;47.036;15.466;2023-05-10T08:20:45;9.60;;;5.80;;
68097;SDS011;54886;47.036;15.466;2023-05-10T08:23:12;11.85;;;5.70;;
68097;SDS011;54886;47.036;15.466;2023-05-10T08:25:38;11.63;;;6.22;;
68097;SDS011;54886;47.036;15.466;2023-05-10T08:28:03;12.15;;;6.13;;
68097;SDS011;54886;47.036;15.466;2023-05-10T08:30:29;10.65;;;5.70;;
68097;SDS011;54886;47.036;15.466;2023-05-10T08:32:54;9.57;;;5.78;;
68097;SDS011;54886;47.036;15.466;2023-05-10T08:35:19;10.63;;;6.05;;
68097;SDS011;54886;47.036;15.466;2023-05-10T08:37:45;9.95;;;6.00;;
68097;SDS011;54886;47.036;15.466;2023-05-10T08:40:11;12.00;;;6.18;;
68097;SDS011;54886;47.036;15.466;2023-05-10T08:42:39;8.88;;;5.40;;
68097;SDS011;54886;47.036;15.466;2023-05-10T08:45:06;10.23;;;5.57;;
68097;SDS011;54886;47.036;15.466;2023-05-10T08:47:32;11.02;;;5.47;;
68097;SDS011;54886;47.036;15.466;2023-05-10T08:49:59;9.15;;;5.70;;
68097;SDS011;54886;47.036;15.466;2023-05-10T08:52:25;10.07;;;5.47;;
68097;SDS011;54886;47.036;15.466;2023-05-10T08:54:52;7.80;;;4.80;;
68097;SDS011;54886;47.036;15.466;2023-05-10T08:57:18;9.18;;;5.35;;
68097;SDS011;54886;47.036;15.466;2023-05-10T08:59:44;12.68;;;5.63;;
68097;SDS011;54886;47.036;15.466;2023-05-10T09:02:10;8.82;;;5.07;;
68097;SDS011;54886;47.036;15.466;2023-05-10T09:07:03;7.32;;;3.30;;
68097;SDS011;54886;47.036;15.466;2023-05-10T09:09:29;7.10;;;3.70;;
68097;SDS011;54886;47.036;15.466;2023-05-10T09:11:54;7.75;;;4.53;;
68097;SDS011;54886;47.036;15.466;2023-05-10T09:14:20;9.73;;;4.32;;
68097;SDS011;54886;47.036;15.466;2023-05-10T09:16:46;7.40;;;4.15;;
68097;SDS011;54886;47.036;15.466;2023-05-10T09:19:12;8.57;;;4.50;;
68097;SDS011;54886;47.036;15.466;2023-05-10T09:21:37;8.18;;;4.43;;
68097;SDS011;54886;47.036;15.466;2023-05-10T09:24:03;8.30;;;4.93;;
68097;SDS011;54886;47.036;15.466;2023-05-10T09:26:30;8.57;;;4.35;;
68097;SDS011;54886;47.036;15.466;2023-05-10T09:28:56;8.00;;;4.70;;
68097;SDS011;54886;47.036;15.466;2023-05-10T09:31:22;8.43;;;4.53;;
68097;SDS011;54886;47.036;15.466;2023-05-10T09:33:49;8.50;;;4.95;;
68097;SDS011;54886;47.036;15.466;2023-05-10T09:36:15;10.00;;;5.28;;
68097;SDS011;54886;47.036;15.466;2023-05-10T09:38:47;8.38;;;4.85;;
68097;SDS011;54886;47.036;15.466;2023-05-10T09:41:21;10.32;;;5.10;;
68097;SDS011;54886;47.036;15.466;2023-05-10T09:43:48;8.32;;;4.78;;
68097;SDS011;54886;47.036;15.466;2023-05-10T09:46:17;10.55;;;4.75;;
68097;SDS011;54886;47.036;15.466;2023-05-10T09:48:43;7.53;;;4.13;;
68097;SDS011;54886;47.036;15.466;2023-05-10T09:51:10;11.15;;;4.50;;
68097;SDS011;54886;47.036;15.466;2023-05-10T09:53:35;8.73;;;4.45;;
68097;SDS011;54886;47.036;15.466;2023-05-10T09:56:01;7.65;;;4.78;;
68097;SDS011;54886;47.036;15.466;2023-05-10T09:58:26;7.32;;;4.50;;
68097;SDS011;54886;47.036;15.466;2023-05-10T10:00:52;8.25;;;4.90;;
68097;SDS011;54886;47.036;15.466;2023-05-10T10:03:19;8.88;;;4.53;;
68097;SDS011;54886;47.036;15.466;2023-05-10T10:05:46;7.25;;;4.45;;
68097;SDS011;54886;47.036;15.466;2023-05-10T10:08:13;7.80;;;4.87;;
68097;SDS011;54886;47.036;15.466;2023-05-10T10:10:40;8.13;;;5.13;;
68097;SDS011;54886;47.036;15.466;2023-05-10T10:13:06;8.07;;;4.68;;
68097;SDS011;54886;47.036;15.466;2023-05-10T10:15:32;8.38;;;5.15;;
68097;SDS011;54886;47.036;15.466;2023-05-10T10:17:59;8.40;;;5.10;;
68097;SDS011;54886;47.036;15.466;2023-05-10T10:20:25;8.77;;;5.07;;
68097;SDS011;54886;47.036;15.466;2023-05-10T10:22:51;14.32;;;4.70;;
68097;SDS011;54886;47.036;15.466;2023-05-10T10:25:17;7.32;;;4.25;;
68097;SDS011;54886;47.036;15.466;2023-05-10T10:35:31;9.10;;;4.78;;
68097;SDS011;54886;47.036;15.466;2023-05-10T10:37:57;7.20;;;4.65;;
68097;SDS011;54886;47.036;15.466;2023-05-10T10:40:29;10.80;;;4.88;;
68097;SDS011;54886;47.036;15.466;2023-05-10T10:42:56;9.20;;;4.57;;
68097;SDS011;54886;47.036;15.466;2023-05-10T10:45:23;9.18;;;4.88;;
68097;SDS011;54886;47.036;15.466;2023-05-10T10:50:47;7.18;;;4.45;;
68097;SDS011;54886;47.036;15.466;2023-05-10T10:53:12;9.60;;;4.90;;
68097;SDS011;54886;47.036;15.466;2023-05-10T10:55:45;8.05;;;4.90;;
68097;SDS011;54886;47.036;15.466;2023-05-10T10:58:15;7.25;;;4.40;;
68097;SDS011;54886;47.036;15.466;2023-05-10T11:01:09;10.07;;;4.95;;
68097;SDS011;54886;47.036;15.466;2023-05-10T11:06:31;9.30;;;4.78;;
68097;SDS011;54886;47.036;15.466;2023-05-10T11:08:58;7.22;;;4.60;;
68097;SDS011;54886;47.036;15.466;2023-05-10T11:11:24;9.30;;;5.32;;
68097;SDS011;54886;47.036;15.466;2023-05-10T11:13:50;10.00;;;4.30;;
68097;SDS011;54886;47.036;15.466;2023-05-10T11:16:20;7.93;;;4.85;;
68097;SDS011;54886;47.036;15.466;2023-05-10T11:21:31;9.93;;;5.00;;
68097;SDS011;54886;47.036;15.466;2023-05-10T11:23:58;8.10;;;4.60;;
68097;SDS011;54886;47.036;15.466;2023-05-10T11:26:26;8.15;;;4.40;;
68097;SDS011;54886;47.036;15.466;2023-05-10T11:28:56;7.45;;;4.63;;
68097;SDS011;54886;47.036;15.466;2023-05-10T11:31:24;8.00;;;4.80;;
68097;SDS011;54886;47.036;15.466;2023-05-10T11:33:52;7.30;;;4.25;;
68097;SDS011;54886;47.036;15.466;2023-05-10T11:36:31;10.32;;;5.50;;
68097;SDS011;54886;47.036;15.466;2023-05-10T11:38:58;8.82;;;5.00;;
68097;SDS011;54886;47.036;15.466;2023-05-10T11:41:24;9.43;;;5.88;;
68097;SDS011;54886;47.036;15.466;2023-05-10T11:43:51;9.55;;;5.18;;
68097;SDS011;54886;47.036;15.466;2023-05-10T11:46:21;7.65;;;4.82;;
68097;SDS011;54886;47.036;15.466;2023-05-10T11:48:51;8.25;;;4.72;;
68097;SDS011;54886;47.036;15.466;2023-05-10T11:51:22;9.13;;;4.63;;
68097;SDS011;54886;47.036;15.466;2023-05-10T11:53:49;6.65;;;4.10;;
68097;SDS011;54886;47.036;15.466;2023-05-10T11:56:16;8.77;;;4.47;;
68097;SDS011;54886;47.036;15.466;2023-05-10T11:58:41;7.45;;;4.60;;
68097;SDS011;54886;47.036;15.466;2023-05-10T12:01:07;7.57;;;4.30;;
68097;SDS011;54886;47.036;15.466;2023-05-10T12:03:34;7.97;;;4.57;;
68097;SDS011;54886;47.036;15.466;2023-05-10T12:06:00;8.55;;;4.57;;
68097;SDS011;54886;47.036;15.466;2023-05-10T12:08:27;7.63;;;4.40;;
68097;SDS011;54886;47.036;15.466;2023-05-10T12:11:03;10.30;;;4.50;;
68097;SDS011;54886;47.036;15.466;2023-05-10T12:13:30;8.43;;;4.35;;
68097;SDS011;54886;47.036;15.466;2023-05-10T12:15:58;6.30;;;3.90;;
68097;SDS011;54886;47.036;15.466;2023-05-10T12:18:24;7.53;;;4.32;;
68097;SDS011;54886;47.036;15.466;2023-05-10T12:20:53;9.40;;;4.35;;
68097;SDS011;54886;47.036;15.466;2023-05-10T12:23:18;7.15;;;4.25;;
68097;SDS011;54886;47.036;15.466;2023-05-10T12:25:45;8.20;;;4.30;;
68097;SDS011;54886;47.036;15.466;2023-05-10T12:28:11;6.10;;;3.97;;
68097;SDS011;54886;47.036;15.466;2023-05-10T12:30:37;6.20;;;3.92;;
68097;SDS011;54886;47.036;15.466;2023-05-10T12:33:10;8.50;;;4.30;;
68097;SDS011;54886;47.036;15.466;2023-05-10T12:35:53;7.78;;;4.25;;
68097;SDS011;54886;47.036;15.466;2023-05-10T12:38:32;7.07;;;3.90;;
68097;SDS011;54886;47.036;15.466;2023-05-10T12:41:00;8.35;;;4.90;;
68097;SDS011;54886;47.036;15.466;2023-05-10T12:43:30;7.57;;;4.38;;
68097;SDS011;54886;47.036;15.466;2023-05-10T12:45:55;7.13;;;4.07;;
68097;SDS011;54886;47.036;15.466;2023-05-10T12:48:21;9.55;;;4.70;;
68097;SDS011;54886;47.036;15.466;2023-05-10T12:50:47;8.75;;;4.32;;
68097;SDS011;54886;47.036;15.466;2023-05-10T12:53:13;7.38;;;4.30;;
68097;SDS011;54886;47.036;15.466;2023-05-10T12:55:40;9.23;;;4.38;;
68097;SDS011;54886;47.036;15.466;2023-05-10T12:58:06;6.60;;;4.20;;
68097;SDS011;54886;47.036;15.466;2023-05-10T13:00:32;9.07;;;4.28;;
68097;SDS011;54886;47.036;15.466;2023-05-10T13:02:57;6.78;;;4.40;;
68097;SDS011;54886;47.036;15.466;2023-05-10T13:05:22;5.63;;;3.78;;
68097;SDS011;54886;47.036;15.466;2023-05-10T13:07:48;6.60;;;4.10;;
68097;SDS011;54886;47.036;15.466;2023-05-10T13:10:13;7.72;;;4.00;;
68097;SDS011;54886;47.036;15.466;2023-05-10T13:12:38;6.82;;;3.85;;
68097;SDS011;54886;47.036;15.466;2023-05-10T13:15:04;7.18;;;4.20;;
68097;SDS011;54886;47.036;15.466;2023-05-10T13:17:30;6.68;;;3.95;;
68097;SDS011;54886;47.036;15.466;2023-05-10T13:19:56;8.32;;;4.30;;
68097;SDS011;54886;47.036;15.466;2023-05-10T13:22:21;9.60;;;4.20;;
68097;SDS011;54886;47.036;15.466;2023-05-10T13:24:47;6.55;;;4.30;;
68097;SDS011;54886;47.036;15.466;2023-05-10T13:27:12;7.18;;;4.32;;
68097;SDS011;54886;47.036;15.466;2023-05-10T13:29:38;6.20;;;4.35;;
68097;SDS011;54886;47.036;15.466;2023-05-10T13:32:03;11.20;;;4.43;;
68097;SDS011;54886;47.036;15.466;2023-05-10T13:34:29;7.88;;;4.20;;
68097;SDS011;54886;47.036;15.466;2023-05-10T13:36:54;6.30;;;4.25;;
68097;SDS011;54886;47.036;15.466;2023-05-10T13:39:21;6.78;;;4.28;;
68097;SDS011;54886;47.036;15.466;2023-05-10T13:41:47;8.52;;;4.22;;
68097;SDS011;54886;47.036;15.466;2023-05-10T13:44:12;6.72;;;4.07;;
68097;SDS011;54886;47.036;15.466;2023-05-10T13:46:39;7.60;;;4.05;;
68097;SDS011;54886;47.036;15.466;2023-05-10T13:49:08;7.63;;;4.57;;
68097;SDS011;54886;47.036;15.466;2023-05-10T13:51:34;11.98;;;4.47;;
68097;SDS011;54886;47.036;15.466;2023-05-10T13:54:00;6.35;;;4.13;;
68097;SDS011;54886;47.036;15.466;2023-05-10T13:56:28;6.75;;;4.40;;
68097;SDS011;54886;47.036;15.466;2023-05-10T13:58:54;7.18;;;4.13;;
68097;SDS011;54886;47.036;15.466;2023-05-10T14:01:21;6.55;;;4.47;;
68097;SDS011;54886;47.036;15.466;2023-05-10T14:03:47;6.07;;;4.20;;
68097;SDS011;54886;47.036;15.466;2023-05-10T14:06:13;7.00;;;4.43;;
68097;SDS011;54886;47.036;15.466;2023-05-10T14:08:38;5.78;;;3.92;;
68097;SDS011;54886;47.036;15.466;2023-05-10T14:11:04;6.85;;;4.45;;
68097;SDS011;54886;47.036;15.466;2023-05-10T14:13:29;6.32;;;4.05;;
68097;SDS011;54886;47.036;15.466;2023-05-10T14:15:54;6.60;;;3.83;;
68097;SDS011;54886;47.036;15.466;2023-05-10T14:18:20;7.20;;;4.03;;
68097;SDS011;54886;47.036;15.466;2023-05-10T14:20:45;6.45;;;4.00;;
68097;SDS011;54886;47.036;15.466;2023-05-10T14:23:11;7.65;;;4.03;;
68097;SDS011;54886;47.036;15.466;2023-05-10T14:25:37;6.22;;;4.30;;
68097;SDS011;54886;47.036;15.466;2023-05-10T14:28:04;6.13;;;4.00;;
68097;SDS011;54886;47.036;15.466;2023-05-10T14:30:30;6.25;;;4.00;;
68097;SDS011;54886;47.036;15.466;2023-05-10T14:32:57;7.18;;;4.40;;
68097;SDS011;54886;47.036;15.466;2023-05-10T14:35:23;6.65;;;3.97;;
68097;SDS011;54886;47.036;15.466;2023-05-10T14:37:48;6.35;;;3.90;;
68097;SDS011;54886;47.036;15.466;2023-05-10T14:40:14;6.47;;;4.13;;
68097;SDS011;54886;47.036;15.466;2023-05-10T14:42:42;6.22;;;3.95;;
68097;SDS011;54886;47.036;15.466;2023-05-10T14:45:08;5.88;;;3.70;;
68097;SDS011;54886;47.036;15.466;2023-05-10T14:47:33;5.53;;;3.78;;
68097;SDS011;54886;47.036;15.466;2023-05-10T14:49:59;5.25;;;3.90;;
68097;SDS011;54886;47.036;15.466;2023-05-10T14:52:25;6.72;;;4.05;;
68097;SDS011;54886;47.036;15.466;2023-05-10T14:54:50;5.43;;;3.70;;
68097;SDS011;54886;47.036;15.466;2023-05-10T14:57:16;6.55;;;3.75;;
68097;SDS011;54886;47.036;15.466;2023-05-10T14:59:41;7.47;;;4.10;;
68097;SDS011;54886;47.036;15.466;2023-05-10T15:02:07;5.43;;;3.65;;
68097;SDS011;54886;47.036;15.466;2023-05-10T15:04:33;5.00;;;3.45;;
68097;SDS011;54886;47.036;15.466;2023-05-10T15:06:58;5.80;;;3.60;;
68097;SDS011;54886;47.036;15.466;2023-05-10T15:09:24;6.15;;;3.60;;
68097;SDS011;54886;47.036;15.466;2023-05-10T15:11:50;6.28;;;3.60;;